sensor_id;sensor_type;location;lat;lon;timestamp;temperature;humidity
52669;DHT22;74205;52.786;6.892;2023-12-29T00:01:40;10.00;93.30
52669;DHT22;74205;52.786;6.892;2023-12-29T00:05:01;9.90;93.90
52669;DHT22;74205;52.786;6.892;2023-12-29T00:08:21;9.90;94.50
52669;DHT22;74205;52.786;6.892;2023-12-29T00:11:42;9.80;94.50
52669;DHT22;74205;52.786;6.892;2023-12-29T00:15:02;9.80;94.90
52669;DHT22;74205;52.786;6.892;2023-12-29T00:18:23;9.80;95.10
52669;DHT22;74205;52.786;6.892;2023-12-29T00:21:44;9.80;95.10
52669;DHT22;74205;52.786;6.892;2023-12-29T00:25:05;9.80;95.10
52669;DHT22;74205;52.786;6.892;2023-12-29T00:28:29;9.80;95.20
52669;DHT22;74205;52.786;6.892;2023-12-29T00:31:49;9.80;95.00
52669;DHT22;74205;52.786;6.892;2023-12-29T00:35:10;9.80;95.20
52669;DHT22;74205;52.786;6.892;2023-12-29T00:38:30;9.80;95.80
52669;DHT22;74205;52.786;6.892;2023-12-29T00:41:51;9.80;96.10
52669;DHT22;74205;52.786;6.892;2023-12-29T00:45:11;9.70;96.60
52669;DHT22;74205;52.786;6.892;2023-12-29T00:48:32;9.60;97.00
52669;DHT22;74205;52.786;6.892;2023-12-29T00:51:53;9.60;97.40
52669;DHT22;74205;52.786;6.892;2023-12-29T00:55:13;9.50;98.30
52669;DHT22;74205;52.786;6.892;2023-12-29T00:58:34;9.50;98.30
52669;DHT22;74205;52.786;6.892;2023-12-29T01:01:55;9.50;98.40
52669;DHT22;74205;52.786;6.892;2023-12-29T01:05:16;9.50;98.50
52669;DHT22;74205;52.786;6.892;2023-12-29T01:08:37;9.50;98.50
52669;DHT22;74205;52.786;6.892;2023-12-29T01:11:58;9.50;98.50
52669;DHT22;74205;52.786;6.892;2023-12-29T01:15:18;9.50;98.70
52669;DHT22;74205;52.786;6.892;2023-12-29T01:18:39;9.50;99.20
52669;DHT22;74205;52.786;6.892;2023-12-29T01:22:00;9.50;99.20
52669;DHT22;74205;52.786;6.892;2023-12-29T01:25:20;9.50;99.70
52669;DHT22;74205;52.786;6.892;2023-12-29T01:28:43;9.50;100.00
52669;DHT22;74205;52.786;6.892;2023-12-29T01:32:04;9.40;100.00
52669;DHT22;74205;52.786;6.892;2023-12-29T01:35:28;9.40;100.00
52669;DHT22;74205;52.786;6.892;2023-12-29T01:38:48;9.40;100.00
52669;DHT22;74205;52.786;6.892;2023-12-29T01:42:09;9.40;100.00
52669;DHT22;74205;52.786;6.892;2023-12-29T01:45:31;9.40;100.00
52669;DHT22;74205;52.786;6.892;2023-12-29T01:48:52;9.50;100.00
52669;DHT22;74205;52.786;6.892;2023-12-29T01:52:13;9.50;100.00
52669;DHT22;74205;52.786;6.892;2023-12-29T01:55:34;9.50;100.00
52669;DHT22;74205;52.786;6.892;2023-12-29T01:58:55;9.60;100.00
52669;DHT22;74205;52.786;6.892;2023-12-29T02:02:16;9.60;100.00
52669;DHT22;74205;52.786;6.892;2023-12-29T02:05:38;9.60;99.90
52669;DHT22;74205;52.786;6.892;2023-12-29T02:09:01;9.60;99.90
52669;DHT22;74205;52.786;6.892;2023-12-29T02:12:23;9.60;100.00
52669;DHT22;74205;52.786;6.892;2023-12-29T02:15:43;9.60;100.00
52669;DHT22;74205;52.786;6.892;2023-12-29T02:22:49;9.60;100.00
52669;DHT22;74205;52.786;6.892;2023-12-29T02:26:10;9.60;100.00
52669;DHT22;74205;52.786;6.892;2023-12-29T02:29:32;9.60;100.00
52669;DHT22;74205;52.786;6.892;2023-12-29T02:33:00;9.60;100.00
52669;DHT22;74205;52.786;6.892;2023-12-29T02:36:22;9.60;100.00
52669;DHT22;74205;52.786;6.892;2023-12-29T02:39:44;9.60;100.00
52669;DHT22;74205;52.786;6.892;2023-12-29T02:43:04;9.60;100.00
52669;DHT22;74205;52.786;6.892;2023-12-29T02:46:25;9.70;100.00
52669;DHT22;74205;52.786;6.892;2023-12-29T02:49:45;9.70;99.80
52669;DHT22;74205;52.786;6.892;2023-12-29T02:53:06;9.70;99.40
52669;DHT22;74205;52.786;6.892;2023-12-29T02:56:27;9.80;99.10
52669;DHT22;74205;52.786;6.892;2023-12-29T02:59:47;9.80;98.80
52669;DHT22;74205;52.786;6.892;2023-12-29T03:03:08;9.80;98.50
52669;DHT22;74205;52.786;6.892;2023-12-29T03:06:28;9.90;98.40
52669;DHT22;74205;52.786;6.892;2023-12-29T03:09:49;9.90;97.70
52669;DHT22;74205;52.786;6.892;2023-12-29T03:13:09;9.90;97.20
52669;DHT22;74205;52.786;6.892;2023-12-29T03:16:30;10.00;96.50
52669;DHT22;74205;52.786;6.892;2023-12-29T03:19:52;10.00;95.60
52669;DHT22;74205;52.786;6.892;2023-12-29T03:23:13;10.10;95.60
52669;DHT22;74205;52.786;6.892;2023-12-29T03:26:33;10.10;95.30
52669;DHT22;74205;52.786;6.892;2023-12-29T03:29:54;10.10;95.40
52669;DHT22;74205;52.786;6.892;2023-12-29T03:33:15;10.10;95.00
52669;DHT22;74205;52.786;6.892;2023-12-29T03:36:36;10.10;94.80
52669;DHT22;74205;52.786;6.892;2023-12-29T03:39:56;10.10;94.60
52669;DHT22;74205;52.786;6.892;2023-12-29T03:43:17;10.00;94.70
52669;DHT22;74205;52.786;6.892;2023-12-29T03:46:37;10.00;94.80
52669;DHT22;74205;52.786;6.892;2023-12-29T03:49:58;10.00;95.00
52669;DHT22;74205;52.786;6.892;2023-12-29T03:53:18;9.90;94.60
52669;DHT22;74205;52.786;6.892;2023-12-29T03:56:39;10.00;94.20
52669;DHT22;74205;52.786;6.892;2023-12-29T04:00:00;10.00;94.10
52669;DHT22;74205;52.786;6.892;2023-12-29T04:03:20;9.90;94.10
52669;DHT22;74205;52.786;6.892;2023-12-29T04:06:41;9.90;94.20
52669;DHT22;74205;52.786;6.892;2023-12-29T04:10:01;9.90;94.50
52669;DHT22;74205;52.786;6.892;2023-12-29T04:13:24;9.90;94.50
52669;DHT22;74205;52.786;6.892;2023-12-29T04:16:44;9.90;94.20
52669;DHT22;74205;52.786;6.892;2023-12-29T04:20:05;10.00;94.00
52669;DHT22;74205;52.786;6.892;2023-12-29T04:23:26;10.00;93.80
52669;DHT22;74205;52.786;6.892;2023-12-29T04:26:47;10.00;93.60
52669;DHT22;74205;52.786;6.892;2023-12-29T04:30:07;10.00;93.60
52669;DHT22;74205;52.786;6.892;2023-12-29T04:33:28;10.00;93.40
52669;DHT22;74205;52.786;6.892;2023-12-29T04:36:49;9.90;93.90
52669;DHT22;74205;52.786;6.892;2023-12-29T04:40:10;9.80;95.20
52669;DHT22;74205;52.786;6.892;2023-12-29T04:43:31;9.80;95.70
52669;DHT22;74205;52.786;6.892;2023-12-29T04:46:51;9.70;95.40
52669;DHT22;74205;52.786;6.892;2023-12-29T04:50:12;9.80;94.60
52669;DHT22;74205;52.786;6.892;2023-12-29T04:53:32;9.80;93.90
52669;DHT22;74205;52.786;6.892;2023-12-29T04:56:53;9.80;93.40
52669;DHT22;74205;52.786;6.892;2023-12-29T05:00:14;9.80;92.10
52669;DHT22;74205;52.786;6.892;2023-12-29T05:03:34;9.90;91.80
52669;DHT22;74205;52.786;6.892;2023-12-29T05:06:55;9.90;91.00
52669;DHT22;74205;52.786;6.892;2023-12-29T05:10:16;9.90;90.30
52669;DHT22;74205;52.786;6.892;2023-12-29T05:13:36;9.90;89.70
52669;DHT22;74205;52.786;6.892;2023-12-29T05:16:57;9.90;89.70
52669;DHT22;74205;52.786;6.892;2023-12-29T05:20:17;9.90;89.40
52669;DHT22;74205;52.786;6.892;2023-12-29T05:23:38;9.90;89.30
52669;DHT22;74205;52.786;6.892;2023-12-29T05:26:58;9.80;89.00
52669;DHT22;74205;52.786;6.892;2023-12-29T05:30:19;9.90;88.60
52669;DHT22;74205;52.786;6.892;2023-12-29T05:33:39;9.90;88.50
52669;DHT22;74205;52.786;6.892;2023-12-29T05:37:00;9.90;88.30
52669;DHT22;74205;52.786;6.892;2023-12-29T05:40:20;9.90;88.10
52669;DHT22;74205;52.786;6.892;2023-12-29T05:43:41;9.90;87.70
52669;DHT22;74205;52.786;6.892;2023-12-29T05:47:02;9.90;87.80
52669;DHT22;74205;52.786;6.892;2023-12-29T05:50:22;9.80;87.60
52669;DHT22;74205;52.786;6.892;2023-12-29T05:53:43;9.90;87.70
52669;DHT22;74205;52.786;6.892;2023-12-29T05:57:04;9.80;87.80
52669;DHT22;74205;52.786;6.892;2023-12-29T06:00:24;9.80;87.80
52669;DHT22;74205;52.786;6.892;2023-12-29T06:03:45;9.80;87.90
52669;DHT22;74205;52.786;6.892;2023-12-29T06:07:05;9.80;87.90
52669;DHT22;74205;52.786;6.892;2023-12-29T06:10:26;9.80;88.10
52669;DHT22;74205;52.786;6.892;2023-12-29T06:13:46;9.90;88.10
52669;DHT22;74205;52.786;6.892;2023-12-29T06:17:07;9.90;88.20
52669;DHT22;74205;52.786;6.892;2023-12-29T06:20:27;9.90;88.30
52669;DHT22;74205;52.786;6.892;2023-12-29T06:23:48;9.90;88.50
52669;DHT22;74205;52.786;6.892;2023-12-29T06:27:09;9.90;88.90
52669;DHT22;74205;52.786;6.892;2023-12-29T06:30:30;9.80;89.40
52669;DHT22;74205;52.786;6.892;2023-12-29T06:33:50;9.90;89.70
52669;DHT22;74205;52.786;6.892;2023-12-29T06:37:11;9.80;90.30
52669;DHT22;74205;52.786;6.892;2023-12-29T06:40:31;9.80;90.90
52669;DHT22;74205;52.786;6.892;2023-12-29T06:43:52;9.80;91.20
52669;DHT22;74205;52.786;6.892;2023-12-29T06:47:12;9.80;91.60
52669;DHT22;74205;52.786;6.892;2023-12-29T06:50:33;9.80;92.00
52669;DHT22;74205;52.786;6.892;2023-12-29T06:53:54;9.80;92.60
52669;DHT22;74205;52.786;6.892;2023-12-29T06:57:14;9.80;92.70
52669;DHT22;74205;52.786;6.892;2023-12-29T07:00:37;9.70;93.10
52669;DHT22;74205;52.786;6.892;2023-12-29T07:03:57;9.70;93.50
52669;DHT22;74205;52.786;6.892;2023-12-29T07:07:18;9.70;93.70
52669;DHT22;74205;52.786;6.892;2023-12-29T07:10:38;9.60;93.80
52669;DHT22;74205;52.786;6.892;2023-12-29T07:13:59;9.70;93.80
52669;DHT22;74205;52.786;6.892;2023-12-29T07:17:19;9.70;93.90
52669;DHT22;74205;52.786;6.892;2023-12-29T07:20:41;9.70;94.10
52669;DHT22;74205;52.786;6.892;2023-12-29T07:24:02;9.60;94.50
52669;DHT22;74205;52.786;6.892;2023-12-29T07:27:22;9.60;95.40
52669;DHT22;74205;52.786;6.892;2023-12-29T07:30:43;9.50;95.70
52669;DHT22;74205;52.786;6.892;2023-12-29T07:34:04;9.50;96.30
52669;DHT22;74205;52.786;6.892;2023-12-29T07:37:24;9.50;96.10
52669;DHT22;74205;52.786;6.892;2023-12-29T07:40:45;9.50;96.70
52669;DHT22;74205;52.786;6.892;2023-12-29T07:44:10;9.50;96.80
52669;DHT22;74205;52.786;6.892;2023-12-29T07:47:31;9.40;97.00
52669;DHT22;74205;52.786;6.892;2023-12-29T07:50:52;9.50;97.00
52669;DHT22;74205;52.786;6.892;2023-12-29T07:54:12;9.50;96.90
52669;DHT22;74205;52.786;6.892;2023-12-29T07:57:33;9.50;97.30
52669;DHT22;74205;52.786;6.892;2023-12-29T08:00:53;9.40;97.60
52669;DHT22;74205;52.786;6.892;2023-12-29T08:04:14;9.40;97.70
52669;DHT22;74205;52.786;6.892;2023-12-29T08:07:35;9.40;98.30
52669;DHT22;74205;52.786;6.892;2023-12-29T08:10:57;9.40;98.50
52669;DHT22;74205;52.786;6.892;2023-12-29T08:14:18;9.40;98.60
52669;DHT22;74205;52.786;6.892;2023-12-29T08:17:39;9.40;98.10
52669;DHT22;74205;52.786;6.892;2023-12-29T08:20:59;9.40;97.30
52669;DHT22;74205;52.786;6.892;2023-12-29T08:24:20;9.40;96.80
52669;DHT22;74205;52.786;6.892;2023-12-29T08:27:41;9.50;96.70
52669;DHT22;74205;52.786;6.892;2023-12-29T08:31:01;9.50;96.60
52669;DHT22;74205;52.786;6.892;2023-12-29T08:34:22;9.50;96.50
52669;DHT22;74205;52.786;6.892;2023-12-29T08:37:45;9.50;96.90
52669;DHT22;74205;52.786;6.892;2023-12-29T08:41:06;9.50;97.50
52669;DHT22;74205;52.786;6.892;2023-12-29T08:44:27;9.50;97.80
52669;DHT22;74205;52.786;6.892;2023-12-29T08:47:47;9.50;97.90
52669;DHT22;74205;52.786;6.892;2023-12-29T08:51:08;9.50;97.70
52669;DHT22;74205;52.786;6.892;2023-12-29T08:54:28;9.50;97.70
52669;DHT22;74205;52.786;6.892;2023-12-29T08:57:49;9.50;97.70
52669;DHT22;74205;52.786;6.892;2023-12-29T09:01:09;9.50;98.10
52669;DHT22;74205;52.786;6.892;2023-12-29T09:04:30;9.50;98.10
52669;DHT22;74205;52.786;6.892;2023-12-29T09:07:50;9.50;97.90
52669;DHT22;74205;52.786;6.892;2023-12-29T09:11:11;9.60;97.60
52669;DHT22;74205;52.786;6.892;2023-12-29T09:14:32;9.70;97.10
52669;DHT22;74205;52.786;6.892;2023-12-29T09:17:54;9.70;97.10
52669;DHT22;74205;52.786;6.892;2023-12-29T09:21:15;9.80;96.90
52669;DHT22;74205;52.786;6.892;2023-12-29T09:24:36;9.90;96.50
52669;DHT22;74205;52.786;6.892;2023-12-29T09:27:56;9.90;96.10
52669;DHT22;74205;52.786;6.892;2023-12-29T09:31:17;9.90;96.10
52669;DHT22;74205;52.786;6.892;2023-12-29T09:34:37;9.90;96.00
52669;DHT22;74205;52.786;6.892;2023-12-29T09:37:58;9.90;96.10
52669;DHT22;74205;52.786;6.892;2023-12-29T09:41:20;9.90;96.00
52669;DHT22;74205;52.786;6.892;2023-12-29T09:44:44;10.00;96.10
52669;DHT22;74205;52.786;6.892;2023-12-29T09:48:07;9.90;96.10
52669;DHT22;74205;52.786;6.892;2023-12-29T09:51:28;10.00;96.20
52669;DHT22;74205;52.786;6.892;2023-12-29T09:54:52;9.90;96.20
52669;DHT22;74205;52.786;6.892;2023-12-29T09:58:13;9.90;96.10
52669;DHT22;74205;52.786;6.892;2023-12-29T10:01:35;9.90;96.20
52669;DHT22;74205;52.786;6.892;2023-12-29T10:04:56;9.90;96.60
52669;DHT22;74205;52.786;6.892;2023-12-29T10:08:18;9.90;96.60
52669;DHT22;74205;52.786;6.892;2023-12-29T10:11:40;9.90;96.60
52669;DHT22;74205;52.786;6.892;2023-12-29T10:15:13;9.80;96.40
52669;DHT22;74205;52.786;6.892;2023-12-29T10:18:45;9.80;96.40
52669;DHT22;74205;52.786;6.892;2023-12-29T10:22:18;9.70;96.20
52669;DHT22;74205;52.786;6.892;2023-12-29T10:25:41;9.70;96.30
52669;DHT22;74205;52.786;6.892;2023-12-29T10:29:01;9.70;96.50
52669;DHT22;74205;52.786;6.892;2023-12-29T10:32:22;9.60;96.90
52669;DHT22;74205;52.786;6.892;2023-12-29T10:35:59;9.50;97.30
52669;DHT22;74205;52.786;6.892;2023-12-29T10:39:23;9.40;97.50
52669;DHT22;74205;52.786;6.892;2023-12-29T10:42:53;9.20;97.20
52669;DHT22;74205;52.786;6.892;2023-12-29T10:46:14;9.00;96.00
52669;DHT22;74205;52.786;6.892;2023-12-29T10:49:35;8.70;96.10
52669;DHT22;74205;52.786;6.892;2023-12-29T10:53:11;8.50;96.40
52669;DHT22;74205;52.786;6.892;2023-12-29T10:56:33;8.40;96.70
52669;DHT22;74205;52.786;6.892;2023-12-29T10:59:56;8.20;96.90
52669;DHT22;74205;52.786;6.892;2023-12-29T11:03:18;8.10;97.60
52669;DHT22;74205;52.786;6.892;2023-12-29T11:06:43;8.10;98.10
52669;DHT22;74205;52.786;6.892;2023-12-29T11:10:08;8.20;98.50
52669;DHT22;74205;52.786;6.892;2023-12-29T11:13:30;8.40;98.30
52669;DHT22;74205;52.786;6.892;2023-12-29T11:16:52;8.50;98.40
52669;DHT22;74205;52.786;6.892;2023-12-29T11:20:12;9.00;97.10
52669;DHT22;74205;52.786;6.892;2023-12-29T11:23:35;9.70;94.30
52669;DHT22;74205;52.786;6.892;2023-12-29T11:26:55;10.30;92.10
52669;DHT22;74205;52.786;6.892;2023-12-29T11:30:16;10.90;89.60
52669;DHT22;74205;52.786;6.892;2023-12-29T11:33:46;10.80;89.80
52669;DHT22;74205;52.786;6.892;2023-12-29T11:44:39;10.20;92.20
52669;DHT22;74205;52.786;6.892;2023-12-29T11:48:00;10.10;93.00
52669;DHT22;74205;52.786;6.892;2023-12-29T11:51:36;10.00;93.70
52669;DHT22;74205;52.786;6.892;2023-12-29T11:55:12;9.90;94.30
52669;DHT22;74205;52.786;6.892;2023-12-29T11:58:33;9.90;95.10
52669;DHT22;74205;52.786;6.892;2023-12-29T12:01:55;9.90;95.00
52669;DHT22;74205;52.786;6.892;2023-12-29T12:05:46;9.90;94.70
52669;DHT22;74205;52.786;6.892;2023-12-29T12:09:22;10.00;94.40
52669;DHT22;74205;52.786;6.892;2023-12-29T12:12:47;10.00;94.60
52669;DHT22;74205;52.786;6.892;2023-12-29T12:20:09;10.10;94.60
52669;DHT22;74205;52.786;6.892;2023-12-29T12:23:33;10.10;94.80
52669;DHT22;74205;52.786;6.892;2023-12-29T12:26:55;10.20;94.60
52669;DHT22;74205;52.786;6.892;2023-12-29T12:30:18;10.20;94.20
52669;DHT22;74205;52.786;6.892;2023-12-29T12:33:39;10.20;93.60
52669;DHT22;74205;52.786;6.892;2023-12-29T12:37:00;10.30;92.50
52669;DHT22;74205;52.786;6.892;2023-12-29T12:40:26;10.30;91.50
52669;DHT22;74205;52.786;6.892;2023-12-29T12:47:34;10.30;89.20
52669;DHT22;74205;52.786;6.892;2023-12-29T12:50:56;10.30;89.40
52669;DHT22;74205;52.786;6.892;2023-12-29T12:54:19;10.30;89.30
52669;DHT22;74205;52.786;6.892;2023-12-29T12:57:40;10.30;89.40
52669;DHT22;74205;52.786;6.892;2023-12-29T13:01:01;10.30;90.20
52669;DHT22;74205;52.786;6.892;2023-12-29T13:04:23;10.30;90.10
52669;DHT22;74205;52.786;6.892;2023-12-29T13:07:44;10.30;88.10
52669;DHT22;74205;52.786;6.892;2023-12-29T13:11:04;10.30;87.40
52669;DHT22;74205;52.786;6.892;2023-12-29T13:14:26;10.30;86.30
52669;DHT22;74205;52.786;6.892;2023-12-29T13:17:53;10.30;85.70
52669;DHT22;74205;52.786;6.892;2023-12-29T13:21:17;10.30;85.70
52669;DHT22;74205;52.786;6.892;2023-12-29T13:24:45;10.20;85.70
52669;DHT22;74205;52.786;6.892;2023-12-29T13:28:07;10.20;85.10
52669;DHT22;74205;52.786;6.892;2023-12-29T13:31:28;10.20;85.30
52669;DHT22;74205;52.786;6.892;2023-12-29T13:38:55;10.20;85.10
52669;DHT22;74205;52.786;6.892;2023-12-29T13:42:19;10.20;84.90
52669;DHT22;74205;52.786;6.892;2023-12-29T13:45:42;10.20;84.70
52669;DHT22;74205;52.786;6.892;2023-12-29T13:49:04;10.20;84.60
52669;DHT22;74205;52.786;6.892;2023-12-29T13:52:26;10.20;84.00
52669;DHT22;74205;52.786;6.892;2023-12-29T13:55:47;10.20;82.60
52669;DHT22;74205;52.786;6.892;2023-12-29T13:59:07;10.10;83.10
52669;DHT22;74205;52.786;6.892;2023-12-29T14:02:31;10.10;82.80
52669;DHT22;74205;52.786;6.892;2023-12-29T14:05:56;10.10;81.60
52669;DHT22;74205;52.786;6.892;2023-12-29T14:09:17;10.10;80.80
52669;DHT22;74205;52.786;6.892;2023-12-29T14:12:38;10.10;80.10
52669;DHT22;74205;52.786;6.892;2023-12-29T14:15:59;10.10;79.50
52669;DHT22;74205;52.786;6.892;2023-12-29T14:19:19;10.10;78.80
52669;DHT22;74205;52.786;6.892;2023-12-29T14:22:40;10.10;78.70
52669;DHT22;74205;52.786;6.892;2023-12-29T14:26:04;10.10;79.20
52669;DHT22;74205;52.786;6.892;2023-12-29T14:29:25;10.10;79.60
52669;DHT22;74205;52.786;6.892;2023-12-29T14:32:46;10.10;80.00
52669;DHT22;74205;52.786;6.892;2023-12-29T14:36:07;10.00;80.70
52669;DHT22;74205;52.786;6.892;2023-12-29T14:39:27;10.00;81.00
52669;DHT22;74205;52.786;6.892;2023-12-29T14:42:48;10.00;80.80
52669;DHT22;74205;52.786;6.892;2023-12-29T14:46:09;10.00;80.40
52669;DHT22;74205;52.786;6.892;2023-12-29T14:49:29;9.90;80.20
52669;DHT22;74205;52.786;6.892;2023-12-29T14:52:50;9.90;80.20
52669;DHT22;74205;52.786;6.892;2023-12-29T14:56:10;9.90;79.70
52669;DHT22;74205;52.786;6.892;2023-12-29T14:59:31;9.90;79.70
52669;DHT22;74205;52.786;6.892;2023-12-29T15:02:51;9.90;80.10
52669;DHT22;74205;52.786;6.892;2023-12-29T15:06:12;9.90;80.40
52669;DHT22;74205;52.786;6.892;2023-12-29T15:09:33;9.90;80.60
52669;DHT22;74205;52.786;6.892;2023-12-29T15:12:56;9.80;80.80
52669;DHT22;74205;52.786;6.892;2023-12-29T15:16:16;9.80;81.30
52669;DHT22;74205;52.786;6.892;2023-12-29T15:19:37;9.80;81.80
52669;DHT22;74205;52.786;6.892;2023-12-29T15:22:57;9.80;82.20
52669;DHT22;74205;52.786;6.892;2023-12-29T15:26:19;9.70;82.60
52669;DHT22;74205;52.786;6.892;2023-12-29T15:29:40;9.70;83.00
52669;DHT22;74205;52.786;6.892;2023-12-29T15:33:00;9.70;83.40
52669;DHT22;74205;52.786;6.892;2023-12-29T15:36:21;9.60;83.70
52669;DHT22;74205;52.786;6.892;2023-12-29T15:39:43;9.60;84.10
52669;DHT22;74205;52.786;6.892;2023-12-29T15:43:03;9.60;84.40
52669;DHT22;74205;52.786;6.892;2023-12-29T15:46:24;9.60;84.60
52669;DHT22;74205;52.786;6.892;2023-12-29T15:49:45;9.50;84.70
52669;DHT22;74205;52.786;6.892;2023-12-29T15:53:05;9.50;84.80
52669;DHT22;74205;52.786;6.892;2023-12-29T15:56:26;9.50;85.00
52669;DHT22;74205;52.786;6.892;2023-12-29T15:59:46;9.50;85.20
52669;DHT22;74205;52.786;6.892;2023-12-29T16:03:07;9.50;84.90
52669;DHT22;74205;52.786;6.892;2023-12-29T16:06:27;9.50;83.40
52669;DHT22;74205;52.786;6.892;2023-12-29T16:09:48;9.50;80.90
52669;DHT22;74205;52.786;6.892;2023-12-29T16:13:09;9.40;78.60
52669;DHT22;74205;52.786;6.892;2023-12-29T16:16:29;9.40;76.80
52669;DHT22;74205;52.786;6.892;2023-12-29T16:19:52;9.30;75.90
52669;DHT22;74205;52.786;6.892;2023-12-29T16:23:13;9.20;74.50
52669;DHT22;74205;52.786;6.892;2023-12-29T16:26:34;9.20;74.90
52669;DHT22;74205;52.786;6.892;2023-12-29T16:29:54;9.20;75.20
52669;DHT22;74205;52.786;6.892;2023-12-29T16:33:15;9.10;74.80
52669;DHT22;74205;52.786;6.892;2023-12-29T16:36:37;9.10;74.70
52669;DHT22;74205;52.786;6.892;2023-12-29T16:39:57;9.10;75.40
52669;DHT22;74205;52.786;6.892;2023-12-29T16:43:18;9.10;75.20
52669;DHT22;74205;52.786;6.892;2023-12-29T16:46:38;9.10;75.50
52669;DHT22;74205;52.786;6.892;2023-12-29T16:49:59;9.10;75.60
52669;DHT22;74205;52.786;6.892;2023-12-29T16:53:21;9.10;75.60
52669;DHT22;74205;52.786;6.892;2023-12-29T16:56:42;9.10;75.20
52669;DHT22;74205;52.786;6.892;2023-12-29T17:00:03;9.10;75.60
52669;DHT22;74205;52.786;6.892;2023-12-29T17:03:24;9.10;75.60
52669;DHT22;74205;52.786;6.892;2023-12-29T17:06:44;9.10;75.50
52669;DHT22;74205;52.786;6.892;2023-12-29T17:10:06;9.10;76.10
52669;DHT22;74205;52.786;6.892;2023-12-29T17:13:26;9.10;76.50
52669;DHT22;74205;52.786;6.892;2023-12-29T17:16:47;9.10;76.70
52669;DHT22;74205;52.786;6.892;2023-12-29T17:20:08;9.10;77.10
52669;DHT22;74205;52.786;6.892;2023-12-29T17:23:28;9.00;77.70
52669;DHT22;74205;52.786;6.892;2023-12-29T17:26:49;8.90;78.40
52669;DHT22;74205;52.786;6.892;2023-12-29T17:30:10;8.70;79.70
52669;DHT22;74205;52.786;6.892;2023-12-29T17:33:30;8.60;80.00
52669;DHT22;74205;52.786;6.892;2023-12-29T17:36:51;8.50;81.10
52669;DHT22;74205;52.786;6.892;2023-12-29T17:40:12;8.40;82.50
52669;DHT22;74205;52.786;6.892;2023-12-29T17:43:32;8.30;83.80
52669;DHT22;74205;52.786;6.892;2023-12-29T17:46:53;8.10;84.80
52669;DHT22;74205;52.786;6.892;2023-12-29T17:50:16;8.00;85.50
52669;DHT22;74205;52.786;6.892;2023-12-29T17:53:36;7.90;86.50
52669;DHT22;74205;52.786;6.892;2023-12-29T17:56:57;7.80;87.50
52669;DHT22;74205;52.786;6.892;2023-12-29T18:00:18;7.70;88.10
52669;DHT22;74205;52.786;6.892;2023-12-29T18:03:38;7.60;89.00
52669;DHT22;74205;52.786;6.892;2023-12-29T18:06:59;7.60;89.10
52669;DHT22;74205;52.786;6.892;2023-12-29T18:10:20;7.60;89.30
52669;DHT22;74205;52.786;6.892;2023-12-29T18:13:41;7.50;89.40
52669;DHT22;74205;52.786;6.892;2023-12-29T18:17:01;7.50;89.50
52669;DHT22;74205;52.786;6.892;2023-12-29T18:20:26;7.50;89.90
52669;DHT22;74205;52.786;6.892;2023-12-29T18:23:46;7.50;90.10
52669;DHT22;74205;52.786;6.892;2023-12-29T18:27:07;7.50;90.40
52669;DHT22;74205;52.786;6.892;2023-12-29T18:30:28;7.50;90.70
52669;DHT22;74205;52.786;6.892;2023-12-29T18:33:48;7.40;91.30
52669;DHT22;74205;52.786;6.892;2023-12-29T18:37:09;7.30;92.40
52669;DHT22;74205;52.786;6.892;2023-12-29T18:40:29;7.30;92.70
52669;DHT22;74205;52.786;6.892;2023-12-29T18:43:51;7.20;92.90
52669;DHT22;74205;52.786;6.892;2023-12-29T18:47:12;7.20;92.80
52669;DHT22;74205;52.786;6.892;2023-12-29T18:50:32;7.20;93.20
52669;DHT22;74205;52.786;6.892;2023-12-29T18:53:53;7.20;93.20
52669;DHT22;74205;52.786;6.892;2023-12-29T18:57:13;7.20;92.90
52669;DHT22;74205;52.786;6.892;2023-12-29T19:00:35;7.20;93.10
52669;DHT22;74205;52.786;6.892;2023-12-29T19:03:56;7.20;93.10
52669;DHT22;74205;52.786;6.892;2023-12-29T19:07:17;7.20;93.20
52669;DHT22;74205;52.786;6.892;2023-12-29T19:10:40;7.20;93.40
52669;DHT22;74205;52.786;6.892;2023-12-29T19:14:01;7.10;93.60
52669;DHT22;74205;52.786;6.892;2023-12-29T19:17:22;7.10;93.80
52669;DHT22;74205;52.786;6.892;2023-12-29T19:20:45;7.00;93.40
52669;DHT22;74205;52.786;6.892;2023-12-29T19:24:06;7.00;93.80
52669;DHT22;74205;52.786;6.892;2023-12-29T19:27:26;7.00;93.70
52669;DHT22;74205;52.786;6.892;2023-12-29T19:30:48;7.00;94.00
52669;DHT22;74205;52.786;6.892;2023-12-29T19:34:08;7.00;94.10
52669;DHT22;74205;52.786;6.892;2023-12-29T19:37:29;7.00;94.30
52669;DHT22;74205;52.786;6.892;2023-12-29T19:40:51;7.00;94.30
52669;DHT22;74205;52.786;6.892;2023-12-29T19:44:12;7.00;94.50
52669;DHT22;74205;52.786;6.892;2023-12-29T19:47:33;7.00;94.30
52669;DHT22;74205;52.786;6.892;2023-12-29T19:50:53;7.00;94.30
52669;DHT22;74205;52.786;6.892;2023-12-29T19:54:14;7.00;94.20
52669;DHT22;74205;52.786;6.892;2023-12-29T19:57:34;7.00;94.40
52669;DHT22;74205;52.786;6.892;2023-12-29T20:00:55;7.00;94.30
52669;DHT22;74205;52.786;6.892;2023-12-29T20:04:16;7.00;94.30
52669;DHT22;74205;52.786;6.892;2023-12-29T20:07:38;7.00;94.30
52669;DHT22;74205;52.786;6.892;2023-12-29T20:10:59;6.90;94.40
52669;DHT22;74205;52.786;6.892;2023-12-29T20:14:20;6.90;94.70
52669;DHT22;74205;52.786;6.892;2023-12-29T20:17:40;6.90;94.70
52669;DHT22;74205;52.786;6.892;2023-12-29T20:21:01;6.90;94.80
52669;DHT22;74205;52.786;6.892;2023-12-29T20:24:22;6.90;94.60
52669;DHT22;74205;52.786;6.892;2023-12-29T20:27:43;6.90;94.70
52669;DHT22;74205;52.786;6.892;2023-12-29T20:31:03;6.90;94.70
52669;DHT22;74205;52.786;6.892;2023-12-29T20:34:24;6.90;94.80
52669;DHT22;74205;52.786;6.892;2023-12-29T20:37:45;6.90;94.90
52669;DHT22;74205;52.786;6.892;2023-12-29T20:41:05;6.90;95.00
52669;DHT22;74205;52.786;6.892;2023-12-29T20:44:26;6.90;94.90
52669;DHT22;74205;52.786;6.892;2023-12-29T20:47:47;6.90;95.00
52669;DHT22;74205;52.786;6.892;2023-12-29T20:51:07;6.90;95.30
52669;DHT22;74205;52.786;6.892;2023-12-29T20:54:31;6.80;95.30
52669;DHT22;74205;52.786;6.892;2023-12-29T20:57:53;6.80;95.30
52669;DHT22;74205;52.786;6.892;2023-12-29T21:01:13;6.80;95.20
52669;DHT22;74205;52.786;6.892;2023-12-29T21:04:34;6.80;95.30
52669;DHT22;74205;52.786;6.892;2023-12-29T21:07:54;6.80;95.40
52669;DHT22;74205;52.786;6.892;2023-12-29T21:11:19;6.90;95.30
52669;DHT22;74205;52.786;6.892;2023-12-29T21:14:40;6.80;95.30
52669;DHT22;74205;52.786;6.892;2023-12-29T21:18:00;6.80;95.30
52669;DHT22;74205;52.786;6.892;2023-12-29T21:21:21;6.80;95.40
52669;DHT22;74205;52.786;6.892;2023-12-29T21:24:42;6.80;95.50
52669;DHT22;74205;52.786;6.892;2023-12-29T21:28:03;6.80;95.60
52669;DHT22;74205;52.786;6.892;2023-12-29T21:31:24;6.80;95.80
52669;DHT22;74205;52.786;6.892;2023-12-29T21:34:44;6.80;95.90
52669;DHT22;74205;52.786;6.892;2023-12-29T21:38:05;6.80;96.10
52669;DHT22;74205;52.786;6.892;2023-12-29T21:41:26;6.80;96.40
52669;DHT22;74205;52.786;6.892;2023-12-29T21:44:47;6.80;96.50
52669;DHT22;74205;52.786;6.892;2023-12-29T21:48:10;6.80;96.50
52669;DHT22;74205;52.786;6.892;2023-12-29T21:51:30;6.80;96.60